createdAt,value
2022-12-23T00:00:20.964Z,45.44
2022-12-23T00:01:19.944Z,46.57
2022-12-23T00:02:20.017Z,45.44
2022-12-23T00:03:20.023Z,45.44
2022-12-23T00:04:20.032Z,46.08
2022-12-23T00:05:19.923Z,46.25
2022-12-23T00:06:19.928Z,46.57
2022-12-23T00:07:19.902Z,45.92
2022-12-23T00:08:19.903Z,46.25
2022-12-23T00:09:19.936Z,45.28
2022-12-23T00:10:19.892Z,45.76
2022-12-23T00:11:19.886Z,45.76
2022-12-23T00:12:19.884Z,45.92
2022-12-23T00:13:19.888Z,45.92
2022-12-23T00:14:21.860Z,45.28
2022-12-23T00:15:20.897Z,45.76
2022-12-23T00:16:19.972Z,45.76
2022-12-23T00:17:23.410Z,45.28
2022-12-23T00:18:20.846Z,46.08
2022-12-23T00:19:19.877Z,45.92
2022-12-23T00:20:19.929Z,46.08
2022-12-23T00:21:19.878Z,45.60
2022-12-23T00:22:19.844Z,45.76
2022-12-23T00:23:19.849Z,45.28
2022-12-23T00:24:19.847Z,45.44
2022-12-23T00:25:19.826Z,46.25
2022-12-23T00:26:19.833Z,45.60
2022-12-23T00:27:19.822Z,45.76
2022-12-23T00:28:19.845Z,45.76
2022-12-23T00:29:19.848Z,45.60
2022-12-23T00:30:19.818Z,46.57
2022-12-23T00:31:19.855Z,45.76
2022-12-23T00:32:19.923Z,45.28
2022-12-23T00:33:19.820Z,46.08
2022-12-23T00:34:19.779Z,46.08
2022-12-23T00:35:19.768Z,45.60
2022-12-23T00:36:19.928Z,45.44
2022-12-23T00:37:19.777Z,45.60
2022-12-23T00:38:19.799Z,46.25
2022-12-23T00:39:19.761Z,46.25
2022-12-23T00:40:19.756Z,45.12
2022-12-23T00:41:19.810Z,45.60
2022-12-23T00:42:19.756Z,45.76
2022-12-23T00:43:19.753Z,45.76
2022-12-23T00:44:19.759Z,45.92
2022-12-23T00:45:19.731Z,45.28
2022-12-23T00:46:19.753Z,45.12
2022-12-23T00:47:19.719Z,45.76
2022-12-23T00:48:19.765Z,45.44
2022-12-23T00:49:19.765Z,45.60
2022-12-23T00:50:19.755Z,45.28
2022-12-23T00:51:19.709Z,45.76
2022-12-23T00:52:19.701Z,46.08
2022-12-23T00:53:19.710Z,44.79
2022-12-23T00:54:19.701Z,45.60
2022-12-23T00:55:19.724Z,45.28
2022-12-23T00:56:19.679Z,46.08
2022-12-23T00:57:19.690Z,45.12
2022-12-23T00:58:19.681Z,45.60
2022-12-23T00:59:19.699Z,45.76
2022-12-23T01:00:19.677Z,45.60
2022-12-23T01:01:20.780Z,45.28
2022-12-23T01:02:19.763Z,45.92
2022-12-23T01:03:19.685Z,45.60
2022-12-23T01:04:19.646Z,44.96
2022-12-23T01:05:19.655Z,45.28
2022-12-23T01:06:19.810Z,45.28
2022-12-23T01:07:19.652Z,45.76
2022-12-23T01:08:19.619Z,46.08
2022-12-23T01:09:19.627Z,46.25
2022-12-23T01:10:19.676Z,45.92
2022-12-23T01:11:19.605Z,45.28
2022-12-23T01:12:19.611Z,45.28
2022-12-23T01:13:19.598Z,44.96
2022-12-23T01:14:20.288Z,45.28
2022-12-23T01:15:19.631Z,45.44
2022-12-23T01:16:19.708Z,45.28
2022-12-23T01:17:19.635Z,45.44
2022-12-23T01:18:19.590Z,45.44
2022-12-23T01:19:19.588Z,45.76
2022-12-23T01:20:19.572Z,45.76
2022-12-23T01:21:19.597Z,45.92
2022-12-23T01:22:19.563Z,45.76
2022-12-23T01:23:19.552Z,45.60
2022-12-23T01:24:19.567Z,45.44
2022-12-23T01:25:19.654Z,45.60
2022-12-23T01:26:19.566Z,45.60
2022-12-23T01:27:19.544Z,45.76
2022-12-23T01:28:19.540Z,45.44
2022-12-23T01:29:19.577Z,45.76
2022-12-23T01:30:19.530Z,45.28
2022-12-23T01:31:19.722Z,46.08
2022-12-23T01:32:19.707Z,45.28
2022-12-23T01:33:19.511Z,45.28
2022-12-23T01:34:19.525Z,46.25
2022-12-23T01:35:19.488Z,45.76
2022-12-23T01:36:19.511Z,45.60
2022-12-23T01:37:19.494Z,45.28
2022-12-23T01:38:19.524Z,46.41
2022-12-23T01:39:19.495Z,45.12
2022-12-23T01:40:19.466Z,45.28
2022-12-23T01:41:19.464Z,45.76
2022-12-23T01:42:19.479Z,45.60
2022-12-23T01:43:19.484Z,44.96
2022-12-23T01:44:19.484Z,45.44
2022-12-23T01:45:19.452Z,45.44
2022-12-23T01:46:19.495Z,45.76
2022-12-23T01:47:19.444Z,45.76
2022-12-23T01:48:19.437Z,45.76
2022-12-23T01:49:19.510Z,45.76
2022-12-23T01:50:19.435Z,45.28
2022-12-23T01:51:19.435Z,45.60
2022-12-23T01:52:19.454Z,45.44
2022-12-23T01:53:19.418Z,45.60
2022-12-23T01:54:19.406Z,45.60
2022-12-23T01:55:19.441Z,45.76
2022-12-23T01:56:19.422Z,44.79
2022-12-23T01:57:19.393Z,46.08
2022-12-23T01:58:19.413Z,45.76
2022-12-23T01:59:19.420Z,45.44
2022-12-23T02:00:19.444Z,45.44
2022-12-23T02:01:19.452Z,45.76
2022-12-23T02:02:19.727Z,45.44
2022-12-23T02:03:19.440Z,45.60
2022-12-23T02:04:19.401Z,45.44
2022-12-23T02:05:19.411Z,45.44
2022-12-23T02:06:19.361Z,45.44
2022-12-23T02:07:19.349Z,45.12
2022-12-23T02:08:19.344Z,45.76
2022-12-23T02:09:19.354Z,45.76
2022-12-23T02:10:19.350Z,45.28
2022-12-23T02:11:19.336Z,45.28
2022-12-23T02:12:19.327Z,46.08
2022-12-23T02:13:19.326Z,45.28
2022-12-23T02:14:19.312Z,45.76
2022-12-23T02:15:19.343Z,44.79
2022-12-23T02:16:19.427Z,45.60
2022-12-23T02:17:19.348Z,45.92
2022-12-23T02:18:19.293Z,45.92
2022-12-23T02:19:19.382Z,45.60
2022-12-23T02:20:19.344Z,45.28
2022-12-23T02:21:19.351Z,45.44
2022-12-23T02:22:19.356Z,44.96
2022-12-23T02:23:19.297Z,45.76
2022-12-23T02:24:19.278Z,45.76
2022-12-23T02:25:19.306Z,45.44
2022-12-23T02:26:19.292Z,45.12
2022-12-23T02:27:19.262Z,45.28
2022-12-23T02:28:19.274Z,45.12
2022-12-23T02:29:19.273Z,45.12
2022-12-23T02:30:19.265Z,45.28
2022-12-23T02:31:19.318Z,45.28
2022-12-23T02:32:19.244Z,46.73
2022-12-23T02:33:19.212Z,45.76
2022-12-23T02:34:19.257Z,45.44
2022-12-23T02:35:19.200Z,45.44
2022-12-23T02:36:19.219Z,46.41
2022-12-23T02:37:19.205Z,44.96
2022-12-23T02:38:19.225Z,45.76
2022-12-23T02:39:19.265Z,45.76
2022-12-23T02:40:19.394Z,45.60
2022-12-23T02:41:19.226Z,45.60
2022-12-23T02:42:19.194Z,45.76
2022-12-23T02:43:19.224Z,45.76
2022-12-23T02:44:19.431Z,45.76
2022-12-23T02:45:19.361Z,45.92
2022-12-23T02:46:19.234Z,45.76
2022-12-23T02:47:19.153Z,46.57
2022-12-23T02:48:19.225Z,46.25
2022-12-23T02:49:19.144Z,45.76
2022-12-23T02:50:19.327Z,45.28
2022-12-23T02:51:19.145Z,45.76
2022-12-23T02:52:19.135Z,46.41
2022-12-23T02:53:19.145Z,45.60
2022-12-23T02:54:19.213Z,45.60
2022-12-23T02:55:19.152Z,45.60
2022-12-23T02:56:19.123Z,45.44
2022-12-23T02:57:19.092Z,45.76
2022-12-23T02:58:19.107Z,46.73
2022-12-23T02:59:19.181Z,46.25
2022-12-23T03:00:19.126Z,46.25
2022-12-23T03:01:19.207Z,46.08
2022-12-23T03:02:19.345Z,45.60
2022-12-23T03:03:19.148Z,45.76
2022-12-23T03:04:19.064Z,45.44
2022-12-23T03:05:19.094Z,45.76
2022-12-23T03:06:19.073Z,45.76
2022-12-23T03:07:19.117Z,45.60
2022-12-23T03:08:19.082Z,45.76
2022-12-23T03:09:19.056Z,45.12
2022-12-23T03:10:19.047Z,45.28
2022-12-23T03:11:19.116Z,45.28
2022-12-23T03:12:19.060Z,45.44
2022-12-23T03:13:19.014Z,45.76
2022-12-23T03:14:19.093Z,45.76
2022-12-23T03:15:19.028Z,45.92
2022-12-23T03:16:19.139Z,45.76
2022-12-23T03:17:20.026Z,46.25
2022-12-23T03:18:19.042Z,45.60
2022-12-23T03:19:19.016Z,45.60
2022-12-23T03:20:19.001Z,45.60
2022-12-23T03:21:18.990Z,45.92
2022-12-23T03:22:19.013Z,45.60
2022-12-23T03:23:19.003Z,46.73
2022-12-23T03:24:19.017Z,45.76
2022-12-23T03:25:19.024Z,45.60
2022-12-23T03:26:18.974Z,46.08
2022-12-23T03:27:18.959Z,45.28
2022-12-23T03:28:18.954Z,45.28
2022-12-23T03:29:18.983Z,45.76
2022-12-23T03:30:18.958Z,45.76
2022-12-23T03:31:19.085Z,47.05
2022-12-23T03:32:18.936Z,47.37
2022-12-23T03:33:18.937Z,46.25
2022-12-23T03:34:18.990Z,45.92
2022-12-23T03:35:18.945Z,46.41
2022-12-23T03:36:18.960Z,45.60
2022-12-23T03:37:18.912Z,46.25
2022-12-23T03:38:18.935Z,46.25
2022-12-23T03:39:18.947Z,45.76
2022-12-23T03:40:18.932Z,45.44
2022-12-23T03:41:18.906Z,44.96
2022-12-23T03:42:19.907Z,45.60
2022-12-23T03:43:18.883Z,46.08
2022-12-23T03:44:18.913Z,46.89
2022-12-23T03:45:38.224Z,46.73
2022-12-23T03:46:20.927Z,47.05
2022-12-23T03:47:18.914Z,45.76
2022-12-23T03:48:18.873Z,45.28
2022-12-23T03:49:18.869Z,45.92
2022-12-23T03:50:18.895Z,46.41
2022-12-23T03:51:18.887Z,45.60
2022-12-23T03:52:21.506Z,46.08
2022-12-23T03:53:19.858Z,45.76
2022-12-23T03:54:18.858Z,45.76
2022-12-23T03:55:18.833Z,47.21
2022-12-23T03:56:18.875Z,45.60
2022-12-23T03:57:18.831Z,46.08
2022-12-23T03:58:18.848Z,45.76
2022-12-23T03:59:18.847Z,46.25
2022-12-23T04:00:18.832Z,46.25
2022-12-23T04:01:18.871Z,46.57
2022-12-23T04:02:18.895Z,45.76
2022-12-23T04:03:18.855Z,46.08
2022-12-23T04:04:18.933Z,46.25
2022-12-23T04:05:18.812Z,45.76
2022-12-23T04:06:18.807Z,45.44
2022-12-23T04:07:18.828Z,46.41
2022-12-23T04:08:18.798Z,45.76
2022-12-23T04:09:22.216Z,46.25
2022-12-23T04:10:19.853Z,45.60
2022-12-23T04:11:18.793Z,46.89
2022-12-23T04:12:18.817Z,47.21
2022-12-23T04:13:18.792Z,47.21
2022-12-23T04:14:19.812Z,48.02
2022-12-23T04:15:18.756Z,48.02
2022-12-23T04:16:18.831Z,45.60
2022-12-23T04:17:18.772Z,45.60
2022-12-23T04:18:18.791Z,46.73
2022-12-23T04:19:18.735Z,45.76
2022-12-23T04:20:18.750Z,46.08
2022-12-23T04:21:18.754Z,46.73
2022-12-23T04:22:18.747Z,46.25
2022-12-23T04:23:18.777Z,45.44
2022-12-23T04:24:18.743Z,45.92
2022-12-23T04:25:18.717Z,46.57
2022-12-23T04:26:18.708Z,46.41
2022-12-23T04:27:18.700Z,46.25
2022-12-23T04:28:18.725Z,46.08
2022-12-23T04:29:18.720Z,46.73
2022-12-23T04:30:18.693Z,45.76
2022-12-23T04:31:18.807Z,46.25
2022-12-23T04:32:18.709Z,45.60
2022-12-23T04:33:18.711Z,45.44
2022-12-23T04:34:18.674Z,48.82
2022-12-23T04:35:18.676Z,46.73
2022-12-23T04:36:18.685Z,47.53
2022-12-23T04:37:18.675Z,47.53
2022-12-23T04:38:18.689Z,45.60
2022-12-23T04:39:18.670Z,46.25
2022-12-23T04:40:20.067Z,46.73
2022-12-23T04:41:18.641Z,46.41
2022-12-23T04:42:18.639Z,45.92
2022-12-23T04:43:18.678Z,45.76
2022-12-23T04:44:18.648Z,45.76
2022-12-23T04:45:18.613Z,48.18
2022-12-23T04:46:18.638Z,46.25
2022-12-23T04:47:18.629Z,47.86
2022-12-23T04:48:18.610Z,46.08
2022-12-23T04:49:18.626Z,46.25
2022-12-23T04:50:18.611Z,46.25
2022-12-23T04:51:18.589Z,46.25
2022-12-23T04:52:18.936Z,45.44
2022-12-23T04:53:18.596Z,45.92
2022-12-23T04:54:18.601Z,45.44
2022-12-23T04:55:18.607Z,47.05
2022-12-23T04:56:18.563Z,45.60
2022-12-23T04:57:18.584Z,46.08
2022-12-23T04:58:18.605Z,46.08
2022-12-23T04:59:18.641Z,45.92
2022-12-23T05:00:19.610Z,46.25
2022-12-23T05:01:18.597Z,47.21
2022-12-23T05:02:18.741Z,45.60
2022-12-23T05:03:18.732Z,46.25
2022-12-23T05:04:18.565Z,46.73
2022-12-23T05:05:18.559Z,47.70
2022-12-23T05:06:18.537Z,46.57
2022-12-23T05:07:18.550Z,49.31
2022-12-23T05:08:18.717Z,47.53
2022-12-23T05:09:18.521Z,45.92
2022-12-23T05:10:18.508Z,46.08
2022-12-23T05:11:18.537Z,45.76
2022-12-23T05:12:18.500Z,45.60
2022-12-23T05:13:18.530Z,48.50
2022-12-23T05:14:18.519Z,47.53
2022-12-23T05:15:19.547Z,46.41
2022-12-23T05:16:18.575Z,45.44
2022-12-23T05:17:18.566Z,47.53
2022-12-23T05:18:18.492Z,48.34
2022-12-23T05:19:18.491Z,46.41
2022-12-23T05:20:18.438Z,46.25
2022-12-23T05:21:18.457Z,47.37
2022-12-23T05:22:18.478Z,48.18
2022-12-23T05:23:18.450Z,46.25
2022-12-23T05:24:18.465Z,47.21
2022-12-23T05:25:18.419Z,47.70
2022-12-23T05:26:18.458Z,48.34
2022-12-23T05:27:18.501Z,48.50
2022-12-23T05:28:18.436Z,45.92
2022-12-23T05:29:18.407Z,48.02
2022-12-23T05:30:18.402Z,49.63
2022-12-23T05:31:18.464Z,49.63
2022-12-23T05:32:18.393Z,51.08
2022-12-23T05:33:18.405Z,47.37
2022-12-23T05:34:18.400Z,47.37
2022-12-23T05:35:18.394Z,47.05
2022-12-23T05:36:18.390Z,48.66
2022-12-23T05:37:18.367Z,48.82
2022-12-23T05:38:18.383Z,47.21
2022-12-23T05:39:18.376Z,46.57
2022-12-23T05:40:23.240Z,47.37
2022-12-23T05:41:20.377Z,49.63
2022-12-23T05:42:18.351Z,49.95
2022-12-23T05:43:18.395Z,50.11
2022-12-23T05:44:18.348Z,49.95
2022-12-23T05:45:18.340Z,48.50
2022-12-23T05:46:24.289Z,48.02
2022-12-23T05:47:20.339Z,50.76
2022-12-23T05:48:18.337Z,48.98
2022-12-23T05:49:18.332Z,48.02
2022-12-23T05:50:18.342Z,49.31
2022-12-23T05:51:18.374Z,46.41
2022-12-23T05:52:18.315Z,48.34
2022-12-23T05:53:18.291Z,48.66
2022-12-23T05:54:18.340Z,52.21
2022-12-23T05:55:18.287Z,47.37
2022-12-23T05:56:18.302Z,49.15
2022-12-23T05:57:18.288Z,48.82
2022-12-23T05:58:18.304Z,47.70
2022-12-23T05:59:18.321Z,46.41
2022-12-23T06:00:18.283Z,46.73
2022-12-23T06:01:19.249Z,48.82
2022-12-23T06:02:18.447Z,53.01
2022-12-23T06:03:18.548Z,51.56
2022-12-23T06:04:18.275Z,53.01
2022-12-23T06:05:18.269Z,48.50
2022-12-23T06:06:18.261Z,48.50
2022-12-23T06:07:18.243Z,46.41
2022-12-23T06:08:18.299Z,50.92
2022-12-23T06:09:18.238Z,49.95
2022-12-23T06:10:18.250Z,46.57
2022-12-23T06:11:18.217Z,45.76
2022-12-23T06:12:18.225Z,46.57
2022-12-23T06:13:18.252Z,47.70
2022-12-23T06:14:19.632Z,48.34
2022-12-23T06:15:18.216Z,49.95
2022-12-23T06:16:18.202Z,50.27
2022-12-23T06:17:18.212Z,50.76
2022-12-23T06:18:18.216Z,50.76
2022-12-23T06:19:18.188Z,47.05
2022-12-23T06:20:21.021Z,46.73
2022-12-23T06:21:19.204Z,49.95
2022-12-23T06:22:18.183Z,48.66
2022-12-23T06:23:18.240Z,48.82
2022-12-23T06:24:18.162Z,50.43
2022-12-23T06:25:18.141Z,48.66
2022-12-23T06:26:18.174Z,47.86
2022-12-23T06:27:18.135Z,47.53
2022-12-23T06:28:18.131Z,50.76
2022-12-23T06:29:18.120Z,53.82
2022-12-23T06:30:18.178Z,49.15
2022-12-23T06:31:18.152Z,49.47
2022-12-23T06:32:18.198Z,49.95
2022-12-23T06:33:18.124Z,48.18
2022-12-23T06:34:18.108Z,49.15
2022-12-23T06:35:18.128Z,46.73
2022-12-23T06:36:18.100Z,47.53
2022-12-23T06:37:18.112Z,48.82
2022-12-23T06:38:18.110Z,51.56
2022-12-23T06:39:18.111Z,49.31
2022-12-23T06:40:18.073Z,48.50
2022-12-23T06:41:18.115Z,52.37
2022-12-23T06:42:18.094Z,48.82
2022-12-23T06:43:18.076Z,47.53
2022-12-23T06:44:18.094Z,48.50
2022-12-23T06:45:18.063Z,45.92
2022-12-23T06:46:18.185Z,49.15
2022-12-23T06:47:19.086Z,48.98
2022-12-23T06:48:18.049Z,50.43
2022-12-23T06:49:18.071Z,48.18
2022-12-23T06:50:18.104Z,47.70
2022-12-23T06:51:18.022Z,49.63
2022-12-23T06:52:18.031Z,47.86
2022-12-23T06:53:18.061Z,46.25
2022-12-23T06:54:18.027Z,46.08
2022-12-23T06:55:18.022Z,49.95
2022-12-23T06:56:18.002Z,49.95
2022-12-23T06:57:18.032Z,48.34
2022-12-23T06:58:18.048Z,45.92
2022-12-23T06:59:18.015Z,48.98
2022-12-23T07:00:17.997Z,48.50
2022-12-23T07:01:17.987Z,47.86
2022-12-23T07:02:18.275Z,51.72
2022-12-23T07:03:18.027Z,47.37
2022-12-23T07:04:18.022Z,51.88
2022-12-23T07:05:17.989Z,50.11
2022-12-23T07:06:17.969Z,48.18
2022-12-23T07:07:17.994Z,48.82
2022-12-23T07:08:17.979Z,48.50
2022-12-23T07:09:17.969Z,46.73
2022-12-23T07:10:17.948Z,46.08
2022-12-23T07:11:18.024Z,46.89
2022-12-23T07:12:17.946Z,48.66
2022-12-23T07:13:18.039Z,52.85
2022-12-23T07:14:17.950Z,49.95
2022-12-23T07:15:17.914Z,50.43
2022-12-23T07:16:18.036Z,47.86
2022-12-23T07:17:17.920Z,49.47
2022-12-23T07:18:17.993Z,51.88
2022-12-23T07:19:18.026Z,49.47
2022-12-23T07:20:17.932Z,48.34
2022-12-23T07:21:26.552Z,48.82
2022-12-23T07:22:20.036Z,49.15
2022-12-23T07:23:17.987Z,49.47
2022-12-23T07:24:18.013Z,48.34
2022-12-23T07:25:17.911Z,49.63
2022-12-23T07:26:17.960Z,48.98
2022-12-23T07:27:18.015Z,48.98
2022-12-23T07:28:18.031Z,47.37
2022-12-23T07:29:17.940Z,48.66
2022-12-23T07:30:17.971Z,49.95
2022-12-23T07:31:17.998Z,49.31
2022-12-23T07:32:17.965Z,48.18
2022-12-23T07:33:17.938Z,48.98
2022-12-23T07:34:17.967Z,51.56
2022-12-23T07:35:17.824Z,49.31
2022-12-23T07:36:17.827Z,47.86
2022-12-23T07:37:17.838Z,47.70
2022-12-23T07:38:17.818Z,51.08
2022-12-23T07:39:17.817Z,54.46
2022-12-23T07:40:17.797Z,48.50
2022-12-23T07:41:17.834Z,48.18
2022-12-23T07:42:44.157Z,46.89
2022-12-23T07:43:19.858Z,49.31
2022-12-23T07:44:17.784Z,47.70
2022-12-23T07:45:17.764Z,47.37
2022-12-23T07:46:17.858Z,51.08
2022-12-23T07:47:17.750Z,48.18
2022-12-23T07:48:17.794Z,45.76
2022-12-23T07:49:17.754Z,48.66
2022-12-23T07:50:17.774Z,48.66
2022-12-23T07:51:17.772Z,47.86
2022-12-23T07:52:17.738Z,47.86
2022-12-23T07:53:17.794Z,51.24
2022-12-23T07:54:17.754Z,50.92
2022-12-23T07:55:17.727Z,50.43
2022-12-23T07:56:17.737Z,48.98
2022-12-23T07:57:17.715Z,48.34
2022-12-23T07:58:17.750Z,49.63
2022-12-23T07:59:17.726Z,48.82
2022-12-23T08:00:17.741Z,48.34
2022-12-23T08:01:17.849Z,47.86
2022-12-23T08:02:17.932Z,46.73
2022-12-23T08:03:17.990Z,49.47
2022-12-23T08:04:17.701Z,48.98
2022-12-23T08:05:17.742Z,49.15
2022-12-23T08:06:17.680Z,48.82
2022-12-23T08:07:17.662Z,50.11
2022-12-23T08:08:17.690Z,49.15
2022-12-23T08:09:17.693Z,46.57
2022-12-23T08:10:17.728Z,48.34
2022-12-23T08:11:17.688Z,50.92
2022-12-23T08:12:17.660Z,47.86
2022-12-23T08:13:17.637Z,48.98
2022-12-23T08:14:17.644Z,49.47
2022-12-23T08:15:17.652Z,49.95
2022-12-23T08:16:17.668Z,49.15
2022-12-23T08:17:17.688Z,49.95
2022-12-23T08:18:17.708Z,49.63
2022-12-23T08:19:17.617Z,50.11
2022-12-23T08:20:17.629Z,53.50
2022-12-23T08:21:17.657Z,50.11
2022-12-23T08:22:17.606Z,48.82
2022-12-23T08:23:23.024Z,49.15
2022-12-23T08:24:19.614Z,49.79
2022-12-23T08:25:17.604Z,48.02
2022-12-23T08:26:17.608Z,48.66
2022-12-23T08:27:17.622Z,48.50
2022-12-23T08:28:17.580Z,48.34
2022-12-23T08:29:17.564Z,49.15
2022-12-23T08:30:17.566Z,51.72
2022-12-23T08:31:17.662Z,48.82
2022-12-23T08:32:17.570Z,47.37
2022-12-23T08:33:17.550Z,48.82
2022-12-23T08:34:17.547Z,50.11
2022-12-23T08:35:17.536Z,51.08
2022-12-23T08:36:22.753Z,51.72
2022-12-23T08:37:19.542Z,49.79
2022-12-23T08:38:17.553Z,49.95
2022-12-23T08:39:17.520Z,49.95
2022-12-23T08:40:17.514Z,49.47
2022-12-23T08:41:17.531Z,50.43
2022-12-23T08:42:17.500Z,49.79
2022-12-23T08:43:17.502Z,51.56
2022-12-23T08:44:17.498Z,51.08
2022-12-23T08:45:18.165Z,50.76
2022-12-23T08:46:17.572Z,48.66
2022-12-23T08:47:17.507Z,49.47
2022-12-23T08:48:17.498Z,49.31
2022-12-23T08:49:17.473Z,48.50
2022-12-23T08:50:17.480Z,50.92
2022-12-23T08:51:17.467Z,49.95
2022-12-23T08:52:17.488Z,49.47
2022-12-23T08:53:17.455Z,50.92
2022-12-23T08:54:17.504Z,49.95
2022-12-23T08:55:17.470Z,49.15
2022-12-23T08:56:17.429Z,47.37
2022-12-23T08:57:17.485Z,46.73
2022-12-23T08:58:17.427Z,46.73
2022-12-23T08:59:19.603Z,49.47
2022-12-23T09:00:18.435Z,50.92
2022-12-23T09:01:17.483Z,52.85
2022-12-23T09:02:17.601Z,48.82
2022-12-23T09:03:17.533Z,49.95
2022-12-23T09:04:17.411Z,49.47
2022-12-23T09:05:17.409Z,49.95
2022-12-23T09:06:18.883Z,48.50
2022-12-23T09:07:17.404Z,48.50
2022-12-23T09:08:17.407Z,48.50
2022-12-23T09:09:17.378Z,52.85
2022-12-23T09:10:17.414Z,52.05
2022-12-23T09:11:17.356Z,49.15
2022-12-23T09:12:17.368Z,51.40
2022-12-23T09:13:26.183Z,49.47
2022-12-23T09:14:19.380Z,49.63
2022-12-23T09:15:17.349Z,48.18
2022-12-23T09:16:17.392Z,49.79
2022-12-23T09:17:17.373Z,48.98
2022-12-23T09:18:17.387Z,52.05
2022-12-23T09:19:17.318Z,51.72
2022-12-23T09:20:17.367Z,49.95
2022-12-23T09:21:17.336Z,49.63
2022-12-23T09:22:17.356Z,50.43
2022-12-23T09:23:17.302Z,49.79
2022-12-23T09:24:17.335Z,50.11
2022-12-23T09:25:17.349Z,51.88
2022-12-23T09:26:17.466Z,51.40
2022-12-23T09:27:17.278Z,50.92
2022-12-23T09:28:17.298Z,51.88
2022-12-23T09:29:17.314Z,49.15
2022-12-23T09:30:17.270Z,52.05
2022-12-23T09:31:17.334Z,47.86
2022-12-23T09:32:17.260Z,48.18
2022-12-23T09:33:17.285Z,47.86
2022-12-23T09:34:17.276Z,49.15
2022-12-23T09:35:17.291Z,48.02
2022-12-23T09:36:17.273Z,49.15
2022-12-23T09:37:17.248Z,49.31
2022-12-23T09:38:17.228Z,48.66
2022-12-23T09:39:17.222Z,50.76
2022-12-23T09:40:17.290Z,49.15
2022-12-23T09:41:17.252Z,47.37
2022-12-23T09:42:17.226Z,50.92
2022-12-23T09:43:17.210Z,50.76
2022-12-23T09:44:17.234Z,51.24
2022-12-23T09:45:17.273Z,48.98
2022-12-23T09:46:17.218Z,48.98
2022-12-23T09:47:17.271Z,49.95
2022-12-23T09:48:17.154Z,50.92
2022-12-23T09:49:17.673Z,48.82
2022-12-23T09:50:17.160Z,48.50
2022-12-23T09:51:17.142Z,48.18
2022-12-23T09:52:17.176Z,50.27
2022-12-23T09:53:17.163Z,48.34
2022-12-23T09:54:17.732Z,49.47
2022-12-23T09:55:18.132Z,49.31
2022-12-23T09:56:17.118Z,49.63
2022-12-23T09:57:17.160Z,50.60
2022-12-23T09:58:17.124Z,52.37
2022-12-23T09:59:17.083Z,53.01
2022-12-23T10:00:17.107Z,52.53
2022-12-23T10:01:17.199Z,49.63
2022-12-23T10:02:17.193Z,56.07
2022-12-23T10:03:17.220Z,54.14
2022-12-23T10:04:17.172Z,52.85
2022-12-23T10:05:17.098Z,49.47
2022-12-23T10:06:17.057Z,48.82
2022-12-23T10:07:17.069Z,49.79
2022-12-23T10:08:17.059Z,48.66
2022-12-23T10:09:17.085Z,50.92
2022-12-23T10:10:17.039Z,48.34
2022-12-23T10:11:17.046Z,48.82
2022-12-23T10:12:19.708Z,49.47
2022-12-23T10:13:18.042Z,50.27
2022-12-23T10:14:17.060Z,48.18
2022-12-23T10:15:17.005Z,50.27
2022-12-23T10:16:17.066Z,48.66
2022-12-23T10:17:16.985Z,48.02
2022-12-23T10:18:17.103Z,49.47
2022-12-23T10:19:17.022Z,50.76
2022-12-23T10:20:16.973Z,50.43
2022-12-23T10:21:17.012Z,53.01
2022-12-23T10:22:17.000Z,50.11
2022-12-23T10:23:16.964Z,48.02
2022-12-23T10:24:16.980Z,49.15
2022-12-23T10:25:16.961Z,51.08
2022-12-23T10:26:16.988Z,48.98
2022-12-23T10:27:16.957Z,50.76
2022-12-23T10:28:17.076Z,49.47
2022-12-23T10:29:19.115Z,49.31
2022-12-23T10:30:51.449Z,50.11
2022-12-23T10:32:18.961Z,48.34
2022-12-23T10:33:16.923Z,48.66
2022-12-23T10:34:16.940Z,48.98
2022-12-23T10:35:16.925Z,50.11
2022-12-23T10:36:16.964Z,49.79
2022-12-23T10:37:16.938Z,50.43
2022-12-23T10:38:16.893Z,49.79
2022-12-23T10:39:16.900Z,48.66
2022-12-23T10:40:16.906Z,48.82
2022-12-23T10:41:16.905Z,51.40
2022-12-23T10:42:16.906Z,49.47
2022-12-23T10:43:16.877Z,52.53
2022-12-23T10:44:16.901Z,50.92
2022-12-23T10:45:17.853Z,48.66
2022-12-23T10:46:16.933Z,49.47
2022-12-23T10:47:16.910Z,52.85
2022-12-23T10:48:16.850Z,52.05
2022-12-23T10:49:16.846Z,52.85
2022-12-23T10:50:16.902Z,51.56
2022-12-23T10:51:16.877Z,50.11
2022-12-23T10:52:16.823Z,52.69
2022-12-23T10:53:16.855Z,50.76
2022-12-23T10:54:16.834Z,50.11
2022-12-23T10:55:16.804Z,50.92
2022-12-23T10:56:16.835Z,52.05
2022-12-23T10:57:16.799Z,51.88
2022-12-23T10:58:16.826Z,51.40
2022-12-23T10:59:16.793Z,50.43
2022-12-23T11:00:16.832Z,52.37
2022-12-23T11:01:25.996Z,49.95
2022-12-23T11:02:18.945Z,50.27
2022-12-23T11:03:16.954Z,50.76
2022-12-23T11:04:16.952Z,51.88
2022-12-23T11:05:16.839Z,53.66
2022-12-23T11:06:16.773Z,52.85
2022-12-23T11:07:43.578Z,50.76
2022-12-23T11:08:18.754Z,53.82
2022-12-23T11:09:16.772Z,50.43
2022-12-23T11:10:16.823Z,50.43
2022-12-23T11:11:16.766Z,50.27
2022-12-23T11:12:16.749Z,50.43
2022-12-23T11:13:16.716Z,48.98
2022-12-23T11:14:16.709Z,51.72
2022-12-23T11:15:16.714Z,52.37
2022-12-23T11:16:16.757Z,50.76
2022-12-23T11:17:16.705Z,50.43
2022-12-23T11:18:16.713Z,48.34
2022-12-23T11:19:16.692Z,53.98
2022-12-23T11:20:16.711Z,52.37
2022-12-23T11:21:16.697Z,51.40
2022-12-23T11:22:16.680Z,49.15
2022-12-23T11:23:16.764Z,48.34
2022-12-23T11:24:16.710Z,52.05
2022-12-23T11:25:16.656Z,55.11
2022-12-23T11:26:16.658Z,52.05
2022-12-23T11:27:17.346Z,53.01
2022-12-23T11:28:16.670Z,54.46
2022-12-23T11:29:16.679Z,52.21
2022-12-23T11:30:16.657Z,49.79
2022-12-23T11:31:16.878Z,50.60
2022-12-23T11:32:16.650Z,51.88
2022-12-23T11:33:16.626Z,49.31
2022-12-23T11:34:16.689Z,48.34
2022-12-23T11:35:16.677Z,50.92
2022-12-23T11:36:16.670Z,52.21
2022-12-23T11:37:16.636Z,53.01
2022-12-23T11:38:16.590Z,52.37
2022-12-23T11:39:16.705Z,51.56
2022-12-23T11:40:16.580Z,52.53
2022-12-23T11:41:16.605Z,52.37
2022-12-23T11:42:16.597Z,52.53
2022-12-23T11:43:16.629Z,53.01
2022-12-23T11:44:16.641Z,52.85
2022-12-23T11:45:16.567Z,52.05
2022-12-23T11:46:16.615Z,50.11
2022-12-23T11:47:16.585Z,51.24
2022-12-23T11:48:16.595Z,52.69
2022-12-23T11:49:17.572Z,52.53
2022-12-23T11:50:16.600Z,52.37
2022-12-23T11:51:16.525Z,52.37
2022-12-23T11:52:16.533Z,51.08
2022-12-23T11:53:16.539Z,52.69
2022-12-23T11:54:16.527Z,51.72
2022-12-23T11:55:16.619Z,50.76
2022-12-23T11:56:16.604Z,50.27
2022-12-23T11:57:16.614Z,48.50
2022-12-23T11:58:17.377Z,48.50
2022-12-23T11:59:16.529Z,47.21
2022-12-23T12:00:16.496Z,52.05
2022-12-23T12:01:16.477Z,50.11
2022-12-23T12:02:16.516Z,48.98
2022-12-23T12:03:16.598Z,49.47
2022-12-23T12:04:16.454Z,48.34
2022-12-23T12:05:16.494Z,49.15
2022-12-23T12:06:16.461Z,51.88
2022-12-23T12:07:16.556Z,49.95
2022-12-23T12:08:16.457Z,51.56
2022-12-23T12:09:16.440Z,54.46
2022-12-23T12:10:16.475Z,51.40
2022-12-23T12:11:16.452Z,48.82
2022-12-23T12:12:16.414Z,50.43
2022-12-23T12:13:16.418Z,50.43
2022-12-23T12:14:16.422Z,52.53
2022-12-23T12:15:16.429Z,52.05
2022-12-23T12:16:16.478Z,50.76
2022-12-23T12:17:16.576Z,50.43
2022-12-23T12:18:16.464Z,52.21
2022-12-23T12:19:16.416Z,49.95
2022-12-23T12:20:16.405Z,52.53
2022-12-23T12:21:16.380Z,53.01
2022-12-23T12:22:16.385Z,53.33
2022-12-23T12:23:16.378Z,54.14
2022-12-23T12:24:18.916Z,52.53
2022-12-23T12:25:17.353Z,52.05
2022-12-23T12:26:16.365Z,51.72
2022-12-23T12:27:16.349Z,51.56
2022-12-23T12:28:16.337Z,51.72
2022-12-23T12:29:16.380Z,53.66
2022-12-23T12:30:16.333Z,49.47
2022-12-23T12:31:16.372Z,50.11
2022-12-23T12:32:16.398Z,53.01
2022-12-23T12:33:16.332Z,50.92
2022-12-23T12:34:16.352Z,51.88
2022-12-23T12:35:16.320Z,50.92
2022-12-23T12:36:16.362Z,49.79
2022-12-23T12:37:16.303Z,53.82
2022-12-23T12:38:16.323Z,54.62
2022-12-23T12:39:16.308Z,53.17
2022-12-23T12:40:16.275Z,52.37
2022-12-23T12:41:16.277Z,49.47
2022-12-23T12:42:16.359Z,51.40
2022-12-23T12:43:16.328Z,48.66
2022-12-23T12:44:16.295Z,47.86
2022-12-23T12:45:16.258Z,53.50
2022-12-23T12:46:16.325Z,52.53
2022-12-23T12:47:36.751Z,52.21
2022-12-23T12:48:19.057Z,50.92
2022-12-23T12:49:17.227Z,54.95
2022-12-23T12:50:16.219Z,52.05
2022-12-23T12:51:16.228Z,54.14
2022-12-23T12:52:16.267Z,52.53
2022-12-23T12:53:16.272Z,55.11